sensor_id;sensor_type;location;lat;lon;timestamp;P1;durP1;ratioP1;P2;durP2;ratioP2
67595;SDS011;54410;48.694;8.934;2023-04-29T00:01:05;2.78;;;2.03;;
67595;SDS011;54410;48.694;8.934;2023-04-29T00:03:31;3.15;;;2.20;;
67595;SDS011;54410;48.694;8.934;2023-04-29T00:05:57;1.98;;;1.77;;
67595;SDS011;54410;48.694;8.934;2023-04-29T00:08:23;3.50;;;2.47;;
67595;SDS011;54410;48.694;8.934;2023-04-29T00:10:49;2.22;;;1.90;;
67595;SDS011;54410;48.694;8.934;2023-04-29T00:13:15;2.20;;;1.80;;
67595;SDS011;54410;48.694;8.934;2023-04-29T00:15:41;3.00;;;2.40;;
67595;SDS011;54410;48.694;8.934;2023-04-29T00:18:07;2.85;;;2.33;;
67595;SDS011;54410;48.694;8.934;2023-04-29T00:20:34;2.65;;;2.10;;
67595;SDS011;54410;48.694;8.934;2023-04-29T00:23:00;3.35;;;2.50;;
67595;SDS011;54410;48.694;8.934;2023-04-29T00:25:26;2.60;;;2.38;;
67595;SDS011;54410;48.694;8.934;2023-04-29T00:27:52;5.15;;;2.88;;
67595;SDS011;54410;48.694;8.934;2023-04-29T00:30:18;2.50;;;2.28;;
67595;SDS011;54410;48.694;8.934;2023-04-29T00:32:43;2.85;;;2.30;;
67595;SDS011;54410;48.694;8.934;2023-04-29T00:35:10;3.00;;;1.90;;
67595;SDS011;54410;48.694;8.934;2023-04-29T00:37:36;3.25;;;2.03;;
67595;SDS011;54410;48.694;8.934;2023-04-29T00:40:03;3.30;;;2.25;;
67595;SDS011;54410;48.694;8.934;2023-04-29T00:42:30;2.42;;;2.08;;
67595;SDS011;54410;48.694;8.934;2023-04-29T00:44:59;3.17;;;2.20;;
67595;SDS011;54410;48.694;8.934;2023-04-29T00:47:25;2.72;;;1.88;;
67595;SDS011;54410;48.694;8.934;2023-04-29T00:49:51;4.38;;;2.40;;
67595;SDS011;54410;48.694;8.934;2023-04-29T00:52:17;3.55;;;2.10;;
67595;SDS011;54410;48.694;8.934;2023-04-29T00:54:43;3.08;;;2.20;;
67595;SDS011;54410;48.694;8.934;2023-04-29T00:57:09;4.65;;;2.63;;
67595;SDS011;54410;48.694;8.934;2023-04-29T00:59:35;3.15;;;2.30;;
67595;SDS011;54410;48.694;8.934;2023-04-29T01:02:02;4.45;;;2.50;;
67595;SDS011;54410;48.694;8.934;2023-04-29T01:04:29;3.08;;;2.28;;
67595;SDS011;54410;48.694;8.934;2023-04-29T01:14:45;2.85;;;2.42;;
67595;SDS011;54410;48.694;8.934;2023-04-29T01:17:14;5.90;;;2.88;;
67595;SDS011;54410;48.694;8.934;2023-04-29T01:19:43;4.40;;;2.63;;
67595;SDS011;54410;48.694;8.934;2023-04-29T01:22:10;3.40;;;2.40;;
67595;SDS011;54410;48.694;8.934;2023-04-29T01:24:38;3.80;;;2.65;;
67595;SDS011;54410;48.694;8.934;2023-04-29T01:27:09;4.35;;;2.85;;
67595;SDS011;54410;48.694;8.934;2023-04-29T01:32:12;2.60;;;2.40;;
67595;SDS011;54410;48.694;8.934;2023-04-29T01:34:43;2.63;;;2.10;;
67595;SDS011;54410;48.694;8.934;2023-04-29T01:37:17;3.97;;;2.60;;
67595;SDS011;54410;48.694;8.934;2023-04-29T01:44:57;3.78;;;2.50;;
67595;SDS011;54410;48.694;8.934;2023-04-29T01:47:25;4.70;;;2.70;;
67595;SDS011;54410;48.694;8.934;2023-04-29T01:49:51;6.43;;;2.60;;
67595;SDS011;54410;48.694;8.934;2023-04-29T01:52:18;5.38;;;3.03;;
67595;SDS011;54410;48.694;8.934;2023-04-29T01:54:44;4.00;;;2.35;;
67595;SDS011;54410;48.694;8.934;2023-04-29T01:57:10;3.42;;;2.67;;
67595;SDS011;54410;48.694;8.934;2023-04-29T01:59:36;2.88;;;2.30;;
67595;SDS011;54410;48.694;8.934;2023-04-29T02:02:02;3.53;;;2.38;;
67595;SDS011;54410;48.694;8.934;2023-04-29T02:04:28;3.70;;;2.67;;
67595;SDS011;54410;48.694;8.934;2023-04-29T02:06:57;4.50;;;2.50;;
67595;SDS011;54410;48.694;8.934;2023-04-29T02:09:23;4.25;;;2.95;;
67595;SDS011;54410;48.694;8.934;2023-04-29T02:11:49;3.15;;;2.40;;
67595;SDS011;54410;48.694;8.934;2023-04-29T02:14:15;3.55;;;2.67;;
67595;SDS011;54410;48.694;8.934;2023-04-29T02:16:44;3.05;;;2.75;;
67595;SDS011;54410;48.694;8.934;2023-04-29T02:19:10;3.22;;;2.22;;
67595;SDS011;54410;48.694;8.934;2023-04-29T02:21:36;4.22;;;2.63;;
67595;SDS011;54410;48.694;8.934;2023-04-29T02:24:04;3.88;;;2.60;;
67595;SDS011;54410;48.694;8.934;2023-04-29T02:26:30;4.17;;;2.63;;
67595;SDS011;54410;48.694;8.934;2023-04-29T02:28:58;6.20;;;2.50;;
67595;SDS011;54410;48.694;8.934;2023-04-29T02:31:24;4.38;;;3.15;;
67595;SDS011;54410;48.694;8.934;2023-04-29T02:33:50;3.28;;;2.17;;
67595;SDS011;54410;48.694;8.934;2023-04-29T02:36:16;3.88;;;2.22;;
67595;SDS011;54410;48.694;8.934;2023-04-29T02:38:42;5.05;;;2.85;;
67595;SDS011;54410;48.694;8.934;2023-04-29T02:41:08;3.42;;;2.20;;
67595;SDS011;54410;48.694;8.934;2023-04-29T02:43:34;4.53;;;2.50;;
67595;SDS011;54410;48.694;8.934;2023-04-29T02:46:00;3.10;;;2.33;;
67595;SDS011;54410;48.694;8.934;2023-04-29T02:48:26;2.97;;;2.40;;
67595;SDS011;54410;48.694;8.934;2023-04-29T02:50:52;2.93;;;2.40;;
67595;SDS011;54410;48.694;8.934;2023-04-29T02:53:18;2.85;;;2.53;;
67595;SDS011;54410;48.694;8.934;2023-04-29T02:55:44;4.75;;;2.58;;
67595;SDS011;54410;48.694;8.934;2023-04-29T02:58:11;4.27;;;2.63;;
67595;SDS011;54410;48.694;8.934;2023-04-29T03:00:37;3.47;;;2.07;;
67595;SDS011;54410;48.694;8.934;2023-04-29T03:03:05;4.40;;;2.50;;
67595;SDS011;54410;48.694;8.934;2023-04-29T03:05:31;4.17;;;2.70;;
67595;SDS011;54410;48.694;8.934;2023-04-29T03:07:57;3.53;;;2.93;;
67595;SDS011;54410;48.694;8.934;2023-04-29T03:10:23;2.80;;;2.37;;
67595;SDS011;54410;48.694;8.934;2023-04-29T03:12:49;2.93;;;2.23;;
67595;SDS011;54410;48.694;8.934;2023-04-29T03:15:15;2.95;;;2.20;;
67595;SDS011;54410;48.694;8.934;2023-04-29T03:17:41;2.90;;;2.60;;
67595;SDS011;54410;48.694;8.934;2023-04-29T03:20:09;4.83;;;2.53;;
67595;SDS011;54410;48.694;8.934;2023-04-29T03:22:35;3.47;;;2.20;;
67595;SDS011;54410;48.694;8.934;2023-04-29T03:25:01;3.30;;;2.50;;
67595;SDS011;54410;48.694;8.934;2023-04-29T03:27:27;3.50;;;2.43;;
67595;SDS011;54410;48.694;8.934;2023-04-29T03:29:53;3.10;;;2.37;;
67595;SDS011;54410;48.694;8.934;2023-04-29T03:32:19;3.97;;;2.73;;
67595;SDS011;54410;48.694;8.934;2023-04-29T03:34:46;4.00;;;2.80;;
67595;SDS011;54410;48.694;8.934;2023-04-29T03:37:13;4.20;;;2.60;;
67595;SDS011;54410;48.694;8.934;2023-04-29T03:39:40;4.53;;;2.40;;
67595;SDS011;54410;48.694;8.934;2023-04-29T03:42:06;3.73;;;2.57;;
67595;SDS011;54410;48.694;8.934;2023-04-29T03:44:32;2.50;;;2.27;;
67595;SDS011;54410;48.694;8.934;2023-04-29T03:46:58;4.17;;;2.47;;
67595;SDS011;54410;48.694;8.934;2023-04-29T03:49:24;3.43;;;2.47;;
67595;SDS011;54410;48.694;8.934;2023-04-29T03:51:50;3.60;;;2.37;;
67595;SDS011;54410;48.694;8.934;2023-04-29T03:54:16;3.00;;;2.23;;
67595;SDS011;54410;48.694;8.934;2023-04-29T03:56:42;3.00;;;2.13;;
67595;SDS011;54410;48.694;8.934;2023-04-29T03:59:09;3.17;;;2.47;;
67595;SDS011;54410;48.694;8.934;2023-04-29T04:01:34;2.47;;;2.07;;
67595;SDS011;54410;48.694;8.934;2023-04-29T04:04:00;6.87;;;2.77;;
67595;SDS011;54410;48.694;8.934;2023-04-29T04:06:27;4.57;;;3.03;;
67595;SDS011;54410;48.694;8.934;2023-04-29T04:08:52;7.57;;;2.50;;
67595;SDS011;54410;48.694;8.934;2023-04-29T04:11:18;4.40;;;2.63;;
67595;SDS011;54410;48.694;8.934;2023-04-29T04:13:44;3.23;;;2.20;;
67595;SDS011;54410;48.694;8.934;2023-04-29T04:16:13;3.57;;;2.93;;
67595;SDS011;54410;48.694;8.934;2023-04-29T04:18:40;3.47;;;2.60;;
67595;SDS011;54410;48.694;8.934;2023-04-29T04:21:06;3.50;;;2.60;;
67595;SDS011;54410;48.694;8.934;2023-04-29T04:23:32;3.00;;;2.30;;
67595;SDS011;54410;48.694;8.934;2023-04-29T04:25:58;2.93;;;2.03;;
67595;SDS011;54410;48.694;8.934;2023-04-29T04:28:24;3.27;;;2.50;;
67595;SDS011;54410;48.694;8.934;2023-04-29T04:30:50;3.53;;;2.70;;
67595;SDS011;54410;48.694;8.934;2023-04-29T04:33:16;3.87;;;2.90;;
67595;SDS011;54410;48.694;8.934;2023-04-29T04:35:42;2.80;;;2.33;;
67595;SDS011;54410;48.694;8.934;2023-04-29T04:38:08;3.87;;;3.00;;
67595;SDS011;54410;48.694;8.934;2023-04-29T04:40:35;2.67;;;2.27;;
67595;SDS011;54410;48.694;8.934;2023-04-29T04:43:01;4.47;;;2.37;;
67595;SDS011;54410;48.694;8.934;2023-04-29T04:45:27;5.75;;;3.30;;
67595;SDS011;54410;48.694;8.934;2023-04-29T04:47:54;5.30;;;3.95;;
67595;SDS011;54410;48.694;8.934;2023-04-29T04:50:20;8.35;;;4.85;;
67595;SDS011;54410;48.694;8.934;2023-04-29T04:52:45;8.73;;;5.55;;
67595;SDS011;54410;48.694;8.934;2023-04-29T04:55:11;6.70;;;5.22;;
67595;SDS011;54410;48.694;8.934;2023-04-29T04:57:37;5.00;;;4.50;;
67595;SDS011;54410;48.694;8.934;2023-04-29T05:00:03;2.00;;;1.85;;
67595;SDS011;54410;48.694;8.934;2023-04-29T05:02:29;1.58;;;1.48;;
67595;SDS011;54410;48.694;8.934;2023-04-29T05:04:54;1.00;;;0.90;;
67595;SDS011;54410;48.694;8.934;2023-04-29T05:07:20;0.90;;;0.90;;
67595;SDS011;54410;48.694;8.934;2023-04-29T05:09:46;0.70;;;0.70;;
67595;SDS011;54410;48.694;8.934;2023-04-29T05:12:11;0.82;;;0.80;;
67595;SDS011;54410;48.694;8.934;2023-04-29T05:14:37;0.95;;;0.57;;
67595;SDS011;54410;48.694;8.934;2023-04-29T05:17:03;0.50;;;0.50;;
67595;SDS011;54410;48.694;8.934;2023-04-29T05:19:28;0.80;;;0.80;;
67595;SDS011;54410;48.694;8.934;2023-04-29T05:21:54;1.15;;;1.02;;
67595;SDS011;54410;48.694;8.934;2023-04-29T05:24:20;0.85;;;0.80;;
67595;SDS011;54410;48.694;8.934;2023-04-29T05:26:46;2.88;;;0.77;;
67595;SDS011;54410;48.694;8.934;2023-04-29T05:29:15;0.85;;;0.70;;
67595;SDS011;54410;48.694;8.934;2023-04-29T05:31:41;0.60;;;0.60;;
67595;SDS011;54410;48.694;8.934;2023-04-29T05:34:06;0.70;;;0.70;;
67595;SDS011;54410;48.694;8.934;2023-04-29T05:36:32;0.50;;;0.50;;
67595;SDS011;54410;48.694;8.934;2023-04-29T05:38:58;0.50;;;0.50;;
67595;SDS011;54410;48.694;8.934;2023-04-29T05:41:23;0.60;;;0.60;;
67595;SDS011;54410;48.694;8.934;2023-04-29T05:43:49;0.60;;;0.60;;
67595;SDS011;54410;48.694;8.934;2023-04-29T05:46:15;0.60;;;0.60;;
67595;SDS011;54410;48.694;8.934;2023-04-29T05:48:41;0.60;;;0.60;;
67595;SDS011;54410;48.694;8.934;2023-04-29T05:51:07;0.70;;;0.70;;
67595;SDS011;54410;48.694;8.934;2023-04-29T05:53:32;0.60;;;0.60;;
67595;SDS011;54410;48.694;8.934;2023-04-29T05:55:59;0.70;;;0.70;;
67595;SDS011;54410;48.694;8.934;2023-04-29T05:58:28;0.65;;;0.65;;
67595;SDS011;54410;48.694;8.934;2023-04-29T06:00:54;0.60;;;0.60;;
67595;SDS011;54410;48.694;8.934;2023-04-29T06:03:20;1.25;;;1.05;;
67595;SDS011;54410;48.694;8.934;2023-04-29T06:05:46;1.10;;;1.00;;
67595;SDS011;54410;48.694;8.934;2023-04-29T06:08:11;0.80;;;0.80;;
67595;SDS011;54410;48.694;8.934;2023-04-29T06:10:37;1.00;;;0.90;;
67595;SDS011;54410;48.694;8.934;2023-04-29T06:13:03;1.40;;;1.10;;
67595;SDS011;54410;48.694;8.934;2023-04-29T06:15:29;1.38;;;1.27;;
67595;SDS011;54410;48.694;8.934;2023-04-29T06:17:55;1.52;;;1.20;;
67595;SDS011;54410;48.694;8.934;2023-04-29T06:20:21;1.98;;;1.50;;
67595;SDS011;54410;48.694;8.934;2023-04-29T06:22:47;1.23;;;1.13;;
67595;SDS011;54410;48.694;8.934;2023-04-29T06:25:13;1.33;;;1.17;;
67595;SDS011;54410;48.694;8.934;2023-04-29T06:27:38;1.17;;;1.08;;
67595;SDS011;54410;48.694;8.934;2023-04-29T06:30:05;0.93;;;0.93;;
67595;SDS011;54410;48.694;8.934;2023-04-29T06:32:31;1.40;;;1.30;;
67595;SDS011;54410;48.694;8.934;2023-04-29T06:34:57;1.35;;;1.10;;
67595;SDS011;54410;48.694;8.934;2023-04-29T06:37:23;2.55;;;1.20;;
67595;SDS011;54410;48.694;8.934;2023-04-29T06:39:49;1.30;;;1.00;;
67595;SDS011;54410;48.694;8.934;2023-04-29T06:42:15;1.60;;;1.38;;
67595;SDS011;54410;48.694;8.934;2023-04-29T06:44:41;1.40;;;1.00;;
67595;SDS011;54410;48.694;8.934;2023-04-29T06:47:07;1.38;;;1.27;;
67595;SDS011;54410;48.694;8.934;2023-04-29T06:49:33;4.72;;;1.08;;
67595;SDS011;54410;48.694;8.934;2023-04-29T06:51:59;0.90;;;0.90;;
67595;SDS011;54410;48.694;8.934;2023-04-29T06:54:26;1.02;;;0.95;;
67595;SDS011;54410;48.694;8.934;2023-04-29T06:56:52;1.02;;;0.98;;
67595;SDS011;54410;48.694;8.934;2023-04-29T06:59:18;0.80;;;0.80;;
67595;SDS011;54410;48.694;8.934;2023-04-29T07:01:44;0.75;;;0.75;;
67595;SDS011;54410;48.694;8.934;2023-04-29T07:04:10;1.10;;;1.00;;
67595;SDS011;54410;48.694;8.934;2023-04-29T07:06:36;1.05;;;0.95;;
67595;SDS011;54410;48.694;8.934;2023-04-29T07:09:02;1.25;;;1.08;;
67595;SDS011;54410;48.694;8.934;2023-04-29T07:11:28;1.35;;;1.23;;
67595;SDS011;54410;48.694;8.934;2023-04-29T07:13:54;1.20;;;1.08;;
67595;SDS011;54410;48.694;8.934;2023-04-29T07:16:20;1.20;;;1.00;;
67595;SDS011;54410;48.694;8.934;2023-04-29T07:18:46;1.50;;;1.20;;
67595;SDS011;54410;48.694;8.934;2023-04-29T07:21:13;1.38;;;1.20;;
67595;SDS011;54410;48.694;8.934;2023-04-29T07:23:39;1.73;;;1.38;;
67595;SDS011;54410;48.694;8.934;2023-04-29T07:26:11;1.38;;;1.20;;
67595;SDS011;54410;48.694;8.934;2023-04-29T07:28:38;1.40;;;1.30;;
67595;SDS011;54410;48.694;8.934;2023-04-29T07:31:04;3.50;;;1.50;;
67595;SDS011;54410;48.694;8.934;2023-04-29T07:33:31;1.75;;;1.10;;
67595;SDS011;54410;48.694;8.934;2023-04-29T07:35:58;2.00;;;1.40;;
67595;SDS011;54410;48.694;8.934;2023-04-29T07:38:23;1.75;;;1.30;;
67595;SDS011;54410;48.694;8.934;2023-04-29T07:40:50;1.63;;;1.17;;
67595;SDS011;54410;48.694;8.934;2023-04-29T07:43:16;1.50;;;1.27;;
67595;SDS011;54410;48.694;8.934;2023-04-29T07:45:42;1.05;;;0.98;;
67595;SDS011;54410;48.694;8.934;2023-04-29T07:48:08;1.17;;;1.08;;
67595;SDS011;54410;48.694;8.934;2023-04-29T07:50:34;1.30;;;1.10;;
67595;SDS011;54410;48.694;8.934;2023-04-29T07:53:03;1.50;;;1.30;;
67595;SDS011;54410;48.694;8.934;2023-04-29T07:55:29;0.90;;;0.90;;
67595;SDS011;54410;48.694;8.934;2023-04-29T07:57:56;1.10;;;1.00;;
67595;SDS011;54410;48.694;8.934;2023-04-29T08:00:22;0.73;;;0.73;;
67595;SDS011;54410;48.694;8.934;2023-04-29T08:02:51;1.40;;;1.25;;
67595;SDS011;54410;48.694;8.934;2023-04-29T08:05:17;1.83;;;0.70;;
67595;SDS011;54410;48.694;8.934;2023-04-29T08:07:45;0.70;;;0.70;;
67595;SDS011;54410;48.694;8.934;2023-04-29T08:10:11;1.00;;;0.90;;
67595;SDS011;54410;48.694;8.934;2023-04-29T08:12:37;2.10;;;1.35;;
67595;SDS011;54410;48.694;8.934;2023-04-29T08:15:03;1.70;;;1.05;;
67595;SDS011;54410;48.694;8.934;2023-04-29T08:17:29;1.35;;;0.90;;
67595;SDS011;54410;48.694;8.934;2023-04-29T08:19:55;2.20;;;0.80;;
67595;SDS011;54410;48.694;8.934;2023-04-29T08:22:21;0.82;;;0.70;;
67595;SDS011;54410;48.694;8.934;2023-04-29T08:24:47;2.45;;;1.02;;
67595;SDS011;54410;48.694;8.934;2023-04-29T08:27:13;1.10;;;0.82;;
67595;SDS011;54410;48.694;8.934;2023-04-29T08:29:39;1.08;;;0.95;;
67595;SDS011;54410;48.694;8.934;2023-04-29T08:32:05;0.77;;;0.77;;
67595;SDS011;54410;48.694;8.934;2023-04-29T08:34:31;1.38;;;0.93;;
67595;SDS011;54410;48.694;8.934;2023-04-29T08:36:57;1.00;;;0.68;;
67595;SDS011;54410;48.694;8.934;2023-04-29T08:39:24;3.58;;;0.80;;
67595;SDS011;54410;48.694;8.934;2023-04-29T08:41:50;2.30;;;0.90;;
67595;SDS011;54410;48.694;8.934;2023-04-29T08:44:17;1.10;;;1.00;;
67595;SDS011;54410;48.694;8.934;2023-04-29T08:46:44;1.42;;;0.90;;
67595;SDS011;54410;48.694;8.934;2023-04-29T08:49:10;0.88;;;0.80;;
67595;SDS011;54410;48.694;8.934;2023-04-29T08:51:37;0.80;;;0.80;;
67595;SDS011;54410;48.694;8.934;2023-04-29T08:54:03;1.35;;;1.10;;
67595;SDS011;54410;48.694;8.934;2023-04-29T08:56:30;1.40;;;1.10;;
67595;SDS011;54410;48.694;8.934;2023-04-29T08:58:56;1.15;;;1.05;;
67595;SDS011;54410;48.694;8.934;2023-04-29T09:01:24;2.42;;;1.17;;
67595;SDS011;54410;48.694;8.934;2023-04-29T09:04:00;0.90;;;0.73;;
67595;SDS011;54410;48.694;8.934;2023-04-29T09:06:29;1.00;;;0.90;;
67595;SDS011;54410;48.694;8.934;2023-04-29T09:08:57;0.82;;;0.82;;
67595;SDS011;54410;48.694;8.934;2023-04-29T09:11:24;0.80;;;0.80;;
67595;SDS011;54410;48.694;8.934;2023-04-29T09:13:51;1.15;;;0.90;;
67595;SDS011;54410;48.694;8.934;2023-04-29T09:16:17;1.23;;;0.85;;
67595;SDS011;54410;48.694;8.934;2023-04-29T09:18:47;1.27;;;1.00;;
67595;SDS011;54410;48.694;8.934;2023-04-29T09:21:14;1.02;;;0.95;;
67595;SDS011;54410;48.694;8.934;2023-04-29T09:23:39;1.48;;;1.23;;
67595;SDS011;54410;48.694;8.934;2023-04-29T09:26:05;1.98;;;1.30;;
67595;SDS011;54410;48.694;8.934;2023-04-29T09:28:31;1.45;;;1.10;;
67595;SDS011;54410;48.694;8.934;2023-04-29T09:30:57;1.75;;;1.30;;
67595;SDS011;54410;48.694;8.934;2023-04-29T09:33:23;3.28;;;1.20;;
67595;SDS011;54410;48.694;8.934;2023-04-29T09:35:52;1.67;;;1.20;;
67595;SDS011;54410;48.694;8.934;2023-04-29T09:38:19;1.50;;;1.17;;
67595;SDS011;54410;48.694;8.934;2023-04-29T09:40:46;1.58;;;1.10;;
67595;SDS011;54410;48.694;8.934;2023-04-29T09:43:12;2.13;;;1.10;;
67595;SDS011;54410;48.694;8.934;2023-04-29T09:45:39;1.80;;;1.05;;
67595;SDS011;54410;48.694;8.934;2023-04-29T09:48:06;1.13;;;1.02;;
67595;SDS011;54410;48.694;8.934;2023-04-29T09:50:34;1.30;;;1.20;;
67595;SDS011;54410;48.694;8.934;2023-04-29T09:53:04;1.15;;;1.02;;
67595;SDS011;54410;48.694;8.934;2023-04-29T09:55:32;1.50;;;1.13;;
67595;SDS011;54410;48.694;8.934;2023-04-29T09:58:02;1.55;;;1.25;;
67595;SDS011;54410;48.694;8.934;2023-04-29T10:00:32;1.20;;;1.10;;
67595;SDS011;54410;48.694;8.934;2023-04-29T10:02:59;1.15;;;1.00;;
67595;SDS011;54410;48.694;8.934;2023-04-29T10:05:26;2.33;;;0.80;;
67595;SDS011;54410;48.694;8.934;2023-04-29T10:07:53;0.80;;;0.70;;
67595;SDS011;54410;48.694;8.934;2023-04-29T10:10:20;2.35;;;0.73;;
67595;SDS011;54410;48.694;8.934;2023-04-29T10:12:47;2.67;;;1.00;;
67595;SDS011;54410;48.694;8.934;2023-04-29T10:18:11;0.90;;;0.90;;
67595;SDS011;54410;48.694;8.934;2023-04-29T10:20:44;0.80;;;0.75;;
67595;SDS011;54410;48.694;8.934;2023-04-29T10:23:12;1.30;;;0.88;;
67595;SDS011;54410;48.694;8.934;2023-04-29T10:25:39;1.42;;;0.80;;
67595;SDS011;54410;48.694;8.934;2023-04-29T10:28:11;2.30;;;0.90;;
67595;SDS011;54410;48.694;8.934;2023-04-29T10:30:41;1.23;;;1.13;;
67595;SDS011;54410;48.694;8.934;2023-04-29T10:33:09;1.30;;;1.17;;
67595;SDS011;54410;48.694;8.934;2023-04-29T10:35:35;2.25;;;1.00;;
67595;SDS011;54410;48.694;8.934;2023-04-29T10:38:04;1.92;;;0.90;;
67595;SDS011;54410;48.694;8.934;2023-04-29T10:40:39;1.00;;;0.90;;
67595;SDS011;54410;48.694;8.934;2023-04-29T10:43:10;1.38;;;0.80;;
67595;SDS011;54410;48.694;8.934;2023-04-29T10:45:36;0.90;;;0.90;;
67595;SDS011;54410;48.694;8.934;2023-04-29T10:51:23;1.33;;;1.10;;
67595;SDS011;54410;48.694;8.934;2023-04-29T10:53:25;3.05;;;0.93;;
67595;SDS011;54410;48.694;8.934;2023-04-29T10:55:53;1.05;;;0.93;;
67595;SDS011;54410;48.694;8.934;2023-04-29T11:00:58;0.90;;;0.90;;
67595;SDS011;54410;48.694;8.934;2023-04-29T11:06:09;2.67;;;1.20;;
67595;SDS011;54410;48.694;8.934;2023-04-29T11:08:38;1.70;;;1.30;;
67595;SDS011;54410;48.694;8.934;2023-04-29T11:11:05;1.70;;;1.30;;
67595;SDS011;54410;48.694;8.934;2023-04-29T11:13:31;0.95;;;0.95;;
67595;SDS011;54410;48.694;8.934;2023-04-29T11:18:31;1.88;;;1.40;;
67595;SDS011;54410;48.694;8.934;2023-04-29T11:23:33;1.83;;;1.10;;
67595;SDS011;54410;48.694;8.934;2023-04-29T11:26:02;1.38;;;1.27;;
67595;SDS011;54410;48.694;8.934;2023-04-29T11:28:28;1.95;;;1.10;;
67595;SDS011;54410;48.694;8.934;2023-04-29T11:30:55;2.95;;;1.20;;
67595;SDS011;54410;48.694;8.934;2023-04-29T11:33:21;2.63;;;1.33;;
67595;SDS011;54410;48.694;8.934;2023-04-29T11:35:47;2.08;;;1.38;;
67595;SDS011;54410;48.694;8.934;2023-04-29T11:38:13;1.15;;;1.05;;
67595;SDS011;54410;48.694;8.934;2023-04-29T11:40:49;2.55;;;1.40;;
67595;SDS011;54410;48.694;8.934;2023-04-29T11:43:16;2.47;;;1.40;;
67595;SDS011;54410;48.694;8.934;2023-04-29T11:45:43;1.60;;;1.50;;
67595;SDS011;54410;48.694;8.934;2023-04-29T11:48:16;1.33;;;0.98;;
67595;SDS011;54410;48.694;8.934;2023-04-29T11:50:42;2.22;;;1.50;;
67595;SDS011;54410;48.694;8.934;2023-04-29T11:53:08;1.30;;;1.20;;
67595;SDS011;54410;48.694;8.934;2023-04-29T11:55:34;0.98;;;0.98;;
67595;SDS011;54410;48.694;8.934;2023-04-29T11:58:00;1.17;;;1.08;;
67595;SDS011;54410;48.694;8.934;2023-04-29T12:00:28;1.38;;;1.00;;
67595;SDS011;54410;48.694;8.934;2023-04-29T12:02:55;0.70;;;0.70;;
67595;SDS011;54410;48.694;8.934;2023-04-29T12:05:26;1.63;;;1.10;;
67595;SDS011;54410;48.694;8.934;2023-04-29T12:07:53;2.15;;;1.17;;
67595;SDS011;54410;48.694;8.934;2023-04-29T12:10:19;1.63;;;1.13;;
67595;SDS011;54410;48.694;8.934;2023-04-29T12:12:45;0.80;;;0.80;;
67595;SDS011;54410;48.694;8.934;2023-04-29T12:15:11;0.95;;;0.90;;
67595;SDS011;54410;48.694;8.934;2023-04-29T12:17:38;2.17;;;0.93;;
67595;SDS011;54410;48.694;8.934;2023-04-29T12:20:05;1.52;;;1.15;;
67595;SDS011;54410;48.694;8.934;2023-04-29T12:22:33;1.00;;;0.90;;
67595;SDS011;54410;48.694;8.934;2023-04-29T12:25:00;1.70;;;0.80;;
67595;SDS011;54410;48.694;8.934;2023-04-29T12:27:28;0.70;;;0.70;;
67595;SDS011;54410;48.694;8.934;2023-04-29T12:29:55;0.65;;;0.65;;
67595;SDS011;54410;48.694;8.934;2023-04-29T12:32:23;0.77;;;0.77;;
67595;SDS011;54410;48.694;8.934;2023-04-29T12:34:50;0.80;;;0.80;;
67595;SDS011;54410;48.694;8.934;2023-04-29T12:37:20;1.20;;;0.98;;
67595;SDS011;54410;48.694;8.934;2023-04-29T12:39:49;2.17;;;1.40;;
67595;SDS011;54410;48.694;8.934;2023-04-29T12:42:16;2.35;;;2.00;;
67595;SDS011;54410;48.694;8.934;2023-04-29T12:44:46;1.95;;;1.63;;
67595;SDS011;54410;48.694;8.934;2023-04-29T12:47:12;2.08;;;1.90;;
67595;SDS011;54410;48.694;8.934;2023-04-29T12:49:42;5.00;;;2.40;;
67595;SDS011;54410;48.694;8.934;2023-04-29T12:52:08;3.58;;;2.67;;
67595;SDS011;54410;48.694;8.934;2023-04-29T12:54:38;3.60;;;2.33;;
67595;SDS011;54410;48.694;8.934;2023-04-29T12:57:07;5.45;;;2.80;;
67595;SDS011;54410;48.694;8.934;2023-04-29T12:59:33;3.15;;;2.17;;
67595;SDS011;54410;48.694;8.934;2023-04-29T13:02:00;2.50;;;1.85;;
67595;SDS011;54410;48.694;8.934;2023-04-29T13:04:26;2.60;;;2.03;;
67595;SDS011;54410;48.694;8.934;2023-04-29T13:06:52;4.50;;;2.30;;
67595;SDS011;54410;48.694;8.934;2023-04-29T13:09:24;6.07;;;2.47;;
67595;SDS011;54410;48.694;8.934;2023-04-29T13:11:50;3.55;;;2.60;;
67595;SDS011;54410;48.694;8.934;2023-04-29T13:14:16;3.10;;;2.30;;
67595;SDS011;54410;48.694;8.934;2023-04-29T13:16:43;3.65;;;1.92;;
67595;SDS011;54410;48.694;8.934;2023-04-29T13:19:09;3.03;;;2.70;;
67595;SDS011;54410;48.694;8.934;2023-04-29T13:21:35;4.07;;;2.47;;
67595;SDS011;54410;48.694;8.934;2023-04-29T13:24:01;2.95;;;2.15;;
67595;SDS011;54410;48.694;8.934;2023-04-29T13:26:27;3.80;;;2.72;;
67595;SDS011;54410;48.694;8.934;2023-04-29T13:28:53;3.70;;;2.58;;
67595;SDS011;54410;48.694;8.934;2023-04-29T13:31:19;3.28;;;2.30;;
67595;SDS011;54410;48.694;8.934;2023-04-29T13:33:45;3.40;;;2.90;;
67595;SDS011;54410;48.694;8.934;2023-04-29T13:36:12;4.85;;;2.75;;
67595;SDS011;54410;48.694;8.934;2023-04-29T13:38:38;5.13;;;3.20;;
67595;SDS011;54410;48.694;8.934;2023-04-29T13:41:04;3.72;;;3.42;;
67595;SDS011;54410;48.694;8.934;2023-04-29T13:43:30;5.13;;;3.75;;
67595;SDS011;54410;48.694;8.934;2023-04-29T13:45:56;4.63;;;3.65;;
67595;SDS011;54410;48.694;8.934;2023-04-29T13:48:23;5.55;;;3.80;;
67595;SDS011;54410;48.694;8.934;2023-04-29T13:50:49;8.45;;;3.70;;
67595;SDS011;54410;48.694;8.934;2023-04-29T13:53:15;5.95;;;3.20;;
67595;SDS011;54410;48.694;8.934;2023-04-29T13:55:41;3.67;;;2.65;;
67595;SDS011;54410;48.694;8.934;2023-04-29T13:58:07;5.70;;;3.70;;
67595;SDS011;54410;48.694;8.934;2023-04-29T14:00:33;5.82;;;3.97;;
67595;SDS011;54410;48.694;8.934;2023-04-29T14:02:59;6.05;;;3.70;;
67595;SDS011;54410;48.694;8.934;2023-04-29T14:05:26;6.03;;;3.55;;
67595;SDS011;54410;48.694;8.934;2023-04-29T14:07:52;4.22;;;3.67;;
67595;SDS011;54410;48.694;8.934;2023-04-29T14:10:18;5.30;;;3.67;;
67595;SDS011;54410;48.694;8.934;2023-04-29T14:12:44;5.28;;;3.33;;
67595;SDS011;54410;48.694;8.934;2023-04-29T14:15:11;8.15;;;3.80;;
67595;SDS011;54410;48.694;8.934;2023-04-29T14:17:37;7.05;;;4.20;;
67595;SDS011;54410;48.694;8.934;2023-04-29T14:20:03;5.40;;;3.63;;
67595;SDS011;54410;48.694;8.934;2023-04-29T14:22:29;5.60;;;4.15;;
67595;SDS011;54410;48.694;8.934;2023-04-29T14:24:55;4.78;;;3.47;;
67595;SDS011;54410;48.694;8.934;2023-04-29T14:27:21;6.78;;;3.70;;
67595;SDS011;54410;48.694;8.934;2023-04-29T14:29:47;6.35;;;3.90;;
67595;SDS011;54410;48.694;8.934;2023-04-29T14:32:13;5.05;;;3.78;;
67595;SDS011;54410;48.694;8.934;2023-04-29T14:34:39;6.43;;;4.05;;
67595;SDS011;54410;48.694;8.934;2023-04-29T14:37:06;6.28;;;4.05;;
67595;SDS011;54410;48.694;8.934;2023-04-29T14:39:32;3.83;;;3.17;;
67595;SDS011;54410;48.694;8.934;2023-04-29T14:41:58;6.00;;;3.78;;
67595;SDS011;54410;48.694;8.934;2023-04-29T14:44:24;7.20;;;4.65;;
67595;SDS011;54410;48.694;8.934;2023-04-29T14:46:50;5.63;;;3.83;;
67595;SDS011;54410;48.694;8.934;2023-04-29T14:49:16;6.65;;;4.55;;
67595;SDS011;54410;48.694;8.934;2023-04-29T14:51:42;7.10;;;3.92;;
67595;SDS011;54410;48.694;8.934;2023-04-29T14:54:08;6.38;;;3.70;;
67595;SDS011;54410;48.694;8.934;2023-04-29T14:56:35;4.22;;;3.30;;
67595;SDS011;54410;48.694;8.934;2023-04-29T14:59:01;6.90;;;4.28;;
67595;SDS011;54410;48.694;8.934;2023-04-29T15:01:27;5.93;;;3.33;;
67595;SDS011;54410;48.694;8.934;2023-04-29T15:03:53;5.15;;;3.53;;
67595;SDS011;54410;48.694;8.934;2023-04-29T15:06:19;5.55;;;3.83;;
67595;SDS011;54410;48.694;8.934;2023-04-29T15:08:45;5.88;;;3.55;;
67595;SDS011;54410;48.694;8.934;2023-04-29T15:11:11;5.43;;;3.80;;
67595;SDS011;54410;48.694;8.934;2023-04-29T15:13:37;5.53;;;4.07;;
67595;SDS011;54410;48.694;8.934;2023-04-29T15:16:03;5.45;;;3.90;;